createdAt,value
2022-08-25T00:00:22.637Z,6.43
2022-08-25T00:02:56.523Z,7.97
2022-08-25T00:05:32.265Z,9.30
2022-08-25T00:08:02.924Z,7.53
2022-08-25T00:10:32.527Z,7.05
2022-08-25T00:13:00.941Z,6.82
2022-08-25T00:15:32.620Z,7.53
2022-08-25T00:18:02.400Z,7.57
2022-08-25T00:20:31.160Z,9.18
2022-08-25T00:23:00.594Z,7.10
2022-08-25T00:25:30.836Z,7.57
2022-08-25T00:28:01.454Z,6.25
2022-08-25T00:30:32.848Z,6.43
2022-08-25T00:33:01.258Z,6.57
2022-08-25T00:35:30.007Z,7.03
2022-08-25T00:37:58.748Z,8.57
2022-08-25T00:40:29.059Z,6.47
2022-08-25T00:42:59.528Z,7.20
2022-08-25T00:45:28.739Z,8.00
2022-08-25T00:47:59.935Z,9.27
2022-08-25T00:50:30.686Z,7.05
2022-08-25T00:53:03.202Z,6.85
2022-08-25T00:55:37.353Z,11.68
2022-08-25T00:58:14.109Z,7.20
2022-08-25T01:00:46.790Z,8.27
2022-08-25T01:03:15.364Z,6.07
2022-08-25T01:05:44.870Z,7.18
2022-08-25T01:08:16.446Z,7.70
2022-08-25T01:10:46.976Z,8.27
2022-08-25T01:13:21.295Z,6.15
2022-08-25T01:15:51.536Z,8.55
2022-08-25T01:18:20.919Z,7.45
2022-08-25T01:20:53.701Z,8.80
2022-08-25T01:23:24.202Z,8.10
2022-08-25T01:25:59.699Z,6.95
2022-08-25T01:28:29.308Z,9.07
2022-08-25T01:30:57.704Z,6.93
2022-08-25T01:33:27.383Z,7.63
2022-08-25T01:35:57.484Z,6.72
2022-08-25T01:38:25.823Z,8.93
2022-08-25T01:40:55.165Z,6.93
2022-08-25T01:43:32.561Z,7.22
2022-08-25T01:46:01.816Z,10.07
2022-08-25T01:48:30.716Z,8.32
2022-08-25T01:51:00.444Z,7.55
2022-08-25T01:53:33.406Z,8.15
2022-08-25T01:56:11.421Z,8.65
2022-08-25T01:58:42.921Z,7.35
2022-08-25T02:01:16.402Z,8.90
2022-08-25T02:03:47.403Z,7.47
2022-08-25T02:06:22.230Z,7.32
2022-08-25T02:09:02.430Z,8.52
2022-08-25T02:11:30.808Z,8.23
2022-08-25T02:14:00.119Z,8.27
2022-08-25T02:16:31.657Z,7.32
2022-08-25T02:19:01.529Z,10.95
2022-08-25T02:21:32.840Z,9.27
2022-08-25T02:24:01.690Z,10.27
2022-08-25T02:26:30.793Z,8.73
2022-08-25T02:28:59.364Z,9.45
2022-08-25T02:31:29.240Z,8.80
2022-08-25T02:33:57.922Z,7.75
2022-08-25T02:36:27.378Z,9.13
2022-08-25T02:38:57.082Z,9.30
2022-08-25T02:41:31.068Z,12.05
2022-08-25T02:44:01.070Z,8.20
2022-08-25T02:46:31.439Z,10.02
2022-08-25T02:49:00.595Z,10.23
2022-08-25T02:51:30.866Z,8.93
2022-08-25T02:54:03.427Z,9.85
2022-08-25T02:56:33.444Z,8.15
2022-08-25T02:59:03.275Z,12.77
2022-08-25T03:01:32.562Z,10.77
2022-08-25T03:04:03.143Z,9.23
2022-08-25T03:06:31.661Z,10.30
2022-08-25T03:09:01.890Z,10.68
2022-08-25T03:11:30.319Z,10.38
2022-08-25T03:13:59.472Z,12.45
2022-08-25T03:16:28.245Z,8.88
2022-08-25T03:18:58.338Z,10.63
2022-08-25T03:21:27.857Z,11.45
2022-08-25T03:23:56.579Z,8.77
2022-08-25T03:26:59.253Z,10.68
2022-08-25T03:29:29.960Z,10.27
2022-08-25T03:32:00.454Z,9.10
2022-08-25T03:34:30.694Z,9.68
2022-08-25T03:37:00.133Z,9.55
2022-08-25T03:39:29.434Z,8.38
2022-08-25T03:41:59.604Z,9.57
2022-08-25T03:44:28.437Z,11.23
2022-08-25T03:46:57.341Z,8.77
2022-08-25T03:49:26.264Z,8.60
2022-08-25T03:51:55.855Z,11.57
2022-08-25T03:54:27.507Z,10.93
2022-08-25T03:56:56.866Z,11.40
2022-08-25T03:59:27.590Z,8.82
2022-08-25T04:01:55.983Z,8.52
2022-08-25T04:04:25.200Z,11.25
2022-08-25T04:06:53.998Z,9.02
2022-08-25T04:09:23.325Z,8.60
2022-08-25T04:11:53.353Z,10.30
2022-08-25T04:14:24.031Z,9.88
2022-08-25T04:16:54.217Z,10.27
2022-08-25T04:19:23.776Z,10.02
2022-08-25T04:21:56.683Z,10.50
2022-08-25T04:24:26.125Z,9.45
2022-08-25T04:26:54.568Z,11.82
2022-08-25T04:29:25.203Z,10.32
2022-08-25T04:31:56.783Z,10.68
2022-08-25T04:34:29.447Z,12.38
2022-08-25T04:37:01.738Z,12.25
2022-08-25T04:39:31.456Z,12.10
2022-08-25T04:42:00.876Z,12.95
2022-08-25T04:44:31.163Z,10.00
2022-08-25T04:47:01.930Z,9.80
2022-08-25T04:49:31.010Z,10.55
2022-08-25T04:51:59.339Z,9.63
2022-08-25T04:54:28.590Z,10.70
2022-08-25T04:57:01.182Z,12.75
2022-08-25T04:59:30.561Z,14.07
2022-08-25T05:02:03.317Z,11.57
2022-08-25T05:04:33.315Z,10.15
2022-08-25T05:07:03.233Z,9.65
2022-08-25T05:09:32.888Z,10.77
2022-08-25T05:12:03.081Z,9.73
2022-08-25T05:14:31.699Z,11.35
2022-08-25T05:17:02.168Z,11.65
2022-08-25T05:19:30.673Z,11.40
2022-08-25T05:21:59.438Z,11.27
2022-08-25T05:24:29.994Z,10.10
2022-08-25T05:26:58.731Z,10.48
2022-08-25T05:29:27.283Z,13.23
2022-08-25T05:31:56.182Z,11.38
2022-08-25T05:34:26.264Z,11.93
2022-08-25T05:36:55.157Z,13.25
2022-08-25T05:39:26.784Z,11.90
2022-08-25T05:41:56.219Z,10.65
2022-08-25T05:44:24.569Z,13.25
2022-08-25T05:46:53.502Z,11.00
2022-08-25T05:49:22.088Z,12.32
2022-08-25T05:51:52.184Z,10.85
2022-08-25T05:54:21.471Z,12.52
2022-08-25T05:56:49.836Z,12.15
2022-08-25T05:59:18.229Z,13.20
2022-08-25T06:02:04.015Z,14.25
2022-08-25T06:04:32.782Z,19.83
2022-08-25T06:07:02.697Z,14.80
2022-08-25T06:09:31.024Z,15.02
2022-08-25T06:11:59.979Z,15.05
2022-08-25T06:14:28.300Z,22.80
2022-08-25T06:16:57.387Z,15.55
2022-08-25T06:19:26.143Z,13.98
2022-08-25T06:21:56.726Z,13.27
2022-08-25T06:24:27.572Z,15.68
2022-08-25T06:26:57.517Z,15.52
2022-08-25T06:29:27.035Z,17.98
2022-08-25T06:31:55.525Z,20.05
2022-08-25T06:34:24.470Z,20.90
2022-08-25T06:36:53.739Z,14.13
2022-08-25T06:39:22.526Z,15.20
2022-08-25T06:41:57.304Z,14.50
2022-08-25T06:44:28.918Z,13.25
2022-08-25T06:46:57.756Z,16.60
2022-08-25T06:49:31.834Z,13.63
2022-08-25T06:52:02.570Z,12.60
2022-08-25T06:54:31.006Z,12.30
2022-08-25T06:57:00.781Z,11.90
2022-08-25T06:59:32.265Z,15.40
2022-08-25T07:02:01.384Z,12.70
2022-08-25T07:04:32.550Z,12.88
2022-08-25T07:07:00.937Z,13.43
2022-08-25T07:09:30.219Z,13.40
2022-08-25T07:12:00.101Z,15.32
2022-08-25T07:14:28.466Z,13.30
2022-08-25T07:16:58.272Z,11.93
2022-08-25T07:19:27.892Z,12.65
2022-08-25T07:21:56.198Z,12.43
2022-08-25T07:24:25.525Z,12.32
2022-08-25T07:26:53.981Z,14.25
2022-08-25T07:29:32.009Z,14.02
2022-08-25T07:32:01.890Z,13.50
2022-08-25T07:34:51.834Z,12.13
2022-08-25T07:37:47.176Z,13.05
2022-08-25T07:40:13.835Z,12.82
2022-08-25T07:42:43.169Z,13.18
2022-08-25T07:45:15.596Z,13.68
2022-08-25T07:47:51.542Z,13.57
2022-08-25T07:50:21.523Z,13.10
2022-08-25T07:52:55.224Z,14.27
2022-08-25T07:55:30.405Z,13.10
2022-08-25T07:58:00.810Z,16.63
2022-08-25T08:00:33.254Z,13.93
2022-08-25T08:03:03.893Z,15.25
2022-08-25T08:05:33.012Z,11.80
2022-08-25T08:08:02.526Z,13.95
2022-08-25T08:11:00.603Z,14.77
2022-08-25T08:13:21.073Z,16.15
2022-08-25T08:15:51.243Z,15.98
2022-08-25T08:18:20.464Z,13.73
2022-08-25T08:20:50.212Z,12.50
2022-08-25T08:23:18.827Z,12.82
2022-08-25T08:25:48.404Z,14.75
2022-08-25T08:28:16.754Z,13.15
2022-08-25T08:30:53.746Z,12.32
2022-08-25T08:33:25.728Z,15.73
2022-08-25T08:36:05.279Z,13.45
2022-08-25T08:38:34.808Z,12.38
2022-08-25T08:42:07.347Z,10.88
2022-08-25T08:44:37.339Z,14.25
2022-08-25T08:47:12.644Z,14.32
2022-08-25T08:49:53.671Z,13.20
2022-08-25T08:52:31.914Z,18.48
2022-08-25T08:55:06.439Z,16.17
2022-08-25T08:57:44.217Z,11.57
2022-08-25T09:00:13.833Z,17.05
2022-08-25T09:02:51.966Z,16.80
2022-08-25T09:05:25.980Z,18.50
2022-08-25T09:07:58.326Z,17.40
2022-08-25T09:10:33.459Z,21.50
2022-08-25T09:13:11.909Z,17.23
2022-08-25T09:16:07.928Z,19.25
2022-08-25T09:18:50.944Z,14.93
2022-08-25T09:21:31.340Z,15.32
2022-08-25T09:24:18.398Z,16.52
2022-08-25T09:27:00.606Z,18.20
2022-08-25T09:29:36.572Z,18.85
2022-08-25T09:32:08.699Z,21.90
2022-08-25T09:34:38.997Z,16.60
2022-08-25T09:37:09.068Z,15.70
2022-08-25T09:39:39.005Z,16.45
2022-08-25T09:42:08.468Z,14.82
2022-08-25T09:44:43.472Z,15.80
2022-08-25T09:47:23.420Z,18.88
2022-08-25T09:50:00.739Z,20.27
2022-08-25T09:52:37.438Z,18.10
2022-08-25T09:55:32.486Z,15.30
2022-08-25T09:58:01.239Z,19.23
2022-08-25T10:00:38.696Z,17.05
2022-08-25T10:03:15.470Z,20.75
2022-08-25T10:06:02.599Z,17.50
2022-08-25T10:08:36.999Z,15.73
2022-08-25T10:11:13.091Z,16.65
2022-08-25T10:13:45.483Z,19.73
2022-08-25T10:16:24.839Z,15.80
2022-08-25T10:19:10.361Z,23.52
2022-08-25T10:21:40.811Z,20.65
2022-08-25T10:24:12.876Z,23.70
2022-08-25T10:27:01.255Z,18.40
2022-08-25T10:29:47.074Z,20.25
2022-08-25T10:32:20.729Z,19.00
2022-08-25T10:34:52.555Z,25.98
2022-08-25T10:37:34.122Z,23.92
2022-08-25T10:40:22.774Z,22.67
2022-08-25T10:43:07.759Z,20.27
2022-08-25T10:45:46.413Z,25.30
2022-08-25T10:48:28.868Z,21.30
2022-08-25T10:51:04.062Z,30.42
2022-08-25T10:53:44.150Z,31.05
2022-08-25T10:56:19.274Z,19.77
2022-08-25T10:59:15.788Z,22.48
2022-08-25T11:01:59.784Z,25.40
2022-08-25T11:04:36.513Z,24.08
2022-08-25T11:07:10.810Z,16.33
2022-08-25T11:09:44.523Z,18.38
2022-08-25T11:12:20.228Z,21.65
2022-08-25T11:14:53.684Z,18.55
2022-08-25T11:17:26.163Z,23.42
2022-08-25T11:19:58.986Z,19.98
2022-08-25T11:22:34.445Z,22.40
2022-08-25T11:25:13.948Z,23.20
2022-08-25T11:27:48.815Z,21.00
2022-08-25T11:30:19.049Z,23.58
2022-08-25T11:32:50.638Z,21.20
2022-08-25T11:35:27.257Z,20.10
2022-08-25T11:38:10.771Z,19.52
2022-08-25T11:40:53.627Z,22.70
2022-08-25T11:43:46.119Z,21.83
2022-08-25T11:46:33.326Z,24.02
2022-08-25T11:49:16.369Z,26.05
2022-08-25T11:51:48.350Z,21.17
2022-08-25T11:54:26.547Z,27.98
2022-08-25T11:57:00.689Z,25.63
2022-08-25T12:00:12.476Z,24.52
2022-08-25T12:02:44.035Z,23.67
2022-08-25T12:05:59.963Z,23.83
2022-08-25T12:08:51.352Z,29.08
2022-08-25T12:11:46.784Z,23.45
2022-08-25T12:14:40.045Z,20.95
2022-08-25T12:17:21.262Z,21.25
2022-08-25T12:19:56.155Z,30.95
2022-08-25T12:22:55.582Z,21.13
2022-08-25T12:25:49.841Z,23.63
2022-08-25T12:28:44.143Z,20.55
2022-08-25T12:31:26.556Z,32.22
2022-08-25T12:34:10.789Z,24.67
2022-08-25T12:36:56.322Z,21.02
2022-08-25T12:39:31.894Z,19.98
2022-08-25T12:42:04.285Z,23.13
2022-08-25T12:44:42.094Z,22.42
2022-08-25T12:47:33.930Z,21.63
2022-08-25T12:50:36.205Z,16.67
2022-08-25T12:53:12.691Z,26.30
2022-08-25T12:55:45.971Z,15.85
2022-08-25T12:58:14.399Z,19.13
2022-08-25T13:01:20.190Z,19.83
2022-08-25T13:04:34.019Z,19.92
2022-08-25T13:07:22.007Z,16.25
2022-08-25T13:10:17.487Z,21.48
2022-08-25T13:12:52.575Z,17.70
2022-08-25T13:15:37.547Z,17.23
2022-08-25T13:18:19.733Z,17.08
2022-08-25T13:20:50.833Z,18.23
2022-08-25T13:23:27.218Z,15.02
2022-08-25T13:25:59.050Z,19.25
2022-08-25T13:28:32.190Z,14.65
2022-08-25T13:31:08.522Z,13.77
2022-08-25T13:33:37.617Z,18.65
2022-08-25T13:36:26.661Z,16.58
2022-08-25T13:39:13.778Z,18.67
2022-08-25T13:41:49.566Z,20.77
2022-08-25T13:44:27.125Z,18.27
2022-08-25T13:47:07.773Z,16.25
2022-08-25T13:49:37.248Z,16.13
2022-08-25T13:52:07.724Z,19.77
2022-08-25T13:54:42.347Z,19.23
2022-08-25T13:57:22.950Z,13.63
2022-08-25T13:59:58.055Z,14.40
2022-08-25T14:02:44.168Z,10.98
2022-08-25T14:05:14.186Z,11.30
2022-08-25T14:08:09.239Z,14.23
2022-08-25T14:10:46.419Z,10.32
2022-08-25T14:13:18.897Z,16.15
2022-08-25T14:15:47.683Z,15.48
2022-08-25T14:18:21.639Z,12.35
2022-08-25T14:20:58.029Z,13.15
2022-08-25T14:23:29.607Z,14.82
2022-08-25T14:26:00.450Z,10.23
2022-08-25T14:28:31.892Z,11.35
2022-08-25T14:31:05.292Z,11.27
2022-08-25T14:33:38.635Z,12.85
2022-08-25T14:36:08.825Z,14.18
2022-08-25T14:38:39.003Z,22.30
2022-08-25T14:41:11.206Z,29.92
2022-08-25T14:43:40.005Z,20.38
2022-08-25T14:46:18.341Z,19.73
2022-08-25T14:48:49.053Z,13.10
2022-08-25T14:51:18.147Z,14.52
2022-08-25T14:53:47.910Z,13.80
2022-08-25T14:56:17.659Z,14.65
2022-08-25T14:58:48.548Z,15.27
2022-08-25T15:01:28.961Z,12.38
2022-08-25T15:04:04.569Z,10.38
2022-08-25T15:06:35.606Z,15.48
2022-08-25T15:09:11.562Z,15.00
2022-08-25T15:11:46.051Z,19.83
2022-08-25T15:14:17.406Z,12.55
2022-08-25T15:16:49.374Z,13.63
2022-08-25T15:19:20.187Z,12.02
2022-08-25T15:21:49.610Z,13.60
2022-08-25T15:24:18.913Z,12.60
2022-08-25T15:29:29.687Z,9.95
2022-08-25T15:31:59.000Z,12.07
2022-08-25T15:34:27.478Z,15.43
2022-08-25T15:36:58.287Z,11.13
2022-08-25T15:39:27.389Z,16.20
2022-08-25T15:41:57.368Z,9.95
2022-08-25T15:44:29.472Z,14.93
2022-08-25T15:46:59.087Z,12.15
2022-08-25T15:49:29.852Z,12.43
2022-08-25T15:52:00.996Z,19.20
2022-08-25T15:54:31.036Z,10.27
2022-08-25T15:57:01.582Z,11.68
2022-08-25T15:59:30.778Z,12.05
2022-08-25T16:02:00.488Z,11.10
2022-08-25T16:04:30.558Z,10.38
2022-08-25T16:07:01.444Z,12.45
2022-08-25T16:09:31.323Z,11.82
2022-08-25T16:12:06.757Z,11.63
2022-08-25T16:14:38.340Z,12.43
2022-08-25T16:17:07.275Z,10.27
2022-08-25T16:19:38.248Z,12.27
2022-08-25T16:22:08.829Z,9.93
2022-08-25T16:24:40.799Z,15.93
2022-08-25T16:27:12.914Z,10.77
2022-08-25T16:29:44.209Z,13.30
2022-08-25T16:32:15.361Z,10.38
2022-08-25T16:34:44.539Z,13.10
2022-08-25T16:37:13.565Z,14.63
2022-08-25T16:39:46.595Z,11.30
2022-08-25T16:42:16.584Z,14.68
2022-08-25T16:44:45.758Z,13.60
2022-08-25T16:47:17.789Z,15.80
2022-08-25T16:49:49.090Z,12.70
2022-08-25T16:52:35.958Z,18.92
2022-08-25T16:55:16.596Z,14.07
2022-08-25T16:57:51.905Z,16.08
2022-08-25T17:00:23.432Z,16.05
2022-08-25T17:02:58.350Z,14.60
2022-08-25T17:05:28.172Z,12.02
2022-08-25T17:08:14.419Z,12.77
2022-08-25T17:10:44.432Z,16.92
2022-08-25T17:13:14.841Z,16.05
2022-08-25T17:15:45.486Z,18.40
2022-08-25T17:18:14.669Z,13.20
2022-08-25T17:20:45.734Z,18.17
2022-08-25T17:23:14.288Z,17.35
2022-08-25T17:25:43.750Z,15.40
2022-08-25T17:28:13.177Z,14.05
2022-08-25T17:30:43.212Z,19.25
2022-08-25T17:33:12.205Z,21.73
2022-08-25T17:35:43.407Z,16.85
2022-08-25T17:38:13.239Z,17.50
2022-08-25T17:40:43.251Z,16.50
2022-08-25T17:43:13.314Z,20.42
2022-08-25T17:45:43.016Z,17.23
2022-08-25T17:48:13.769Z,16.73
2022-08-25T17:50:42.787Z,16.38
2022-08-25T17:53:11.967Z,15.88
2022-08-25T17:55:43.190Z,14.52
2022-08-25T17:58:14.670Z,19.50
2022-08-25T18:00:47.059Z,14.02
2022-08-25T18:03:16.105Z,15.68
2022-08-25T18:05:45.119Z,15.25
2022-08-25T18:08:14.935Z,13.63
2022-08-25T18:10:43.814Z,13.98
2022-08-25T18:13:12.959Z,12.02
2022-08-25T18:15:45.534Z,12.50
2022-08-25T18:18:14.537Z,13.57
2022-08-25T18:20:46.900Z,12.05
2022-08-25T18:23:15.599Z,13.25
2022-08-25T18:25:44.889Z,16.15
2022-08-25T18:28:13.454Z,13.98
2022-08-25T18:30:45.722Z,11.73
2022-08-25T18:33:15.474Z,15.23
2022-08-25T18:35:44.046Z,14.00
2022-08-25T18:38:30.963Z,15.30
2022-08-25T18:41:01.339Z,19.27
2022-08-25T18:43:33.887Z,17.25
2022-08-25T18:46:06.001Z,15.60
2022-08-25T18:48:37.910Z,13.25
2022-08-25T18:51:07.830Z,15.13
2022-08-25T18:53:50.228Z,17.00
2022-08-25T18:56:21.032Z,16.20
2022-08-25T18:58:49.908Z,12.23
2022-08-25T19:01:22.122Z,12.25
2022-08-25T19:03:51.322Z,16.35
2022-08-25T19:06:21.332Z,17.73
2022-08-25T19:08:58.990Z,15.20
2022-08-25T19:11:28.370Z,13.70
2022-08-25T19:14:00.021Z,16.27
2022-08-25T19:16:35.941Z,17.10
2022-08-25T19:19:06.642Z,16.92
2022-08-25T19:21:38.594Z,12.73
2022-08-25T19:24:09.849Z,13.35
2022-08-25T19:26:38.903Z,13.25
2022-08-25T19:29:09.778Z,19.17
2022-08-25T19:31:42.255Z,19.23
2022-08-25T19:34:14.368Z,27.45
2022-08-25T19:36:44.841Z,35.78
2022-08-25T19:39:16.384Z,21.75
2022-08-25T19:41:46.109Z,23.35
2022-08-25T19:44:16.241Z,27.88
2022-08-25T19:46:46.909Z,30.02
2022-08-25T19:49:26.536Z,34.97
2022-08-25T19:51:57.106Z,27.42
2022-08-25T19:54:29.318Z,21.55
2022-08-25T19:56:59.175Z,23.40
2022-08-25T19:59:42.298Z,22.15
2022-08-25T20:02:16.592Z,15.88
2022-08-25T20:04:49.973Z,18.35
2022-08-25T20:07:20.635Z,18.25
2022-08-25T20:09:50.296Z,20.02
2022-08-25T20:12:20.539Z,24.48
2022-08-25T20:14:51.267Z,16.30
2022-08-25T20:17:41.550Z,17.75
2022-08-25T20:20:13.533Z,16.83
2022-08-25T20:22:43.427Z,15.75
2022-08-25T20:25:14.834Z,19.75
2022-08-25T20:27:49.452Z,20.70
2022-08-25T20:30:22.122Z,17.42
2022-08-25T20:32:55.200Z,19.73
2022-08-25T20:35:26.838Z,20.20
2022-08-25T20:37:57.601Z,14.52
2022-08-25T20:40:28.379Z,14.55
2022-08-25T20:42:59.703Z,17.60
2022-08-25T20:45:32.410Z,20.48
2022-08-25T20:48:02.229Z,18.77
2022-08-25T20:50:33.596Z,18.30
2022-08-25T20:53:02.548Z,20.30
2022-08-25T20:55:32.095Z,19.17
2022-08-25T20:58:09.651Z,19.15
2022-08-25T21:00:38.042Z,14.25
2022-08-25T21:03:09.484Z,17.63
2022-08-25T21:05:39.717Z,17.50
2022-08-25T21:08:10.975Z,16.23
2022-08-25T21:10:39.288Z,17.15
2022-08-25T21:13:08.948Z,19.08
2022-08-25T21:15:40.711Z,14.40
2022-08-25T21:18:11.405Z,14.93
2022-08-25T21:20:40.169Z,19.48
2022-08-25T21:23:09.208Z,16.38
2022-08-25T21:25:40.991Z,15.70
2022-08-25T21:28:10.153Z,16.98
2022-08-25T21:30:42.094Z,19.00
2022-08-25T21:33:16.820Z,16.80
2022-08-25T21:35:46.804Z,17.92
2022-08-25T21:38:15.358Z,17.15
2022-08-25T21:40:44.989Z,17.75
2022-08-25T21:43:20.382Z,15.85
2022-08-25T21:45:50.074Z,14.10
2022-08-25T21:48:20.168Z,14.70
2022-08-25T21:50:48.777Z,15.65
2022-08-25T21:53:27.005Z,17.65
2022-08-25T21:55:55.378Z,14.18
2022-08-25T21:58:24.559Z,17.00
2022-08-25T22:00:53.933Z,16.08
2022-08-25T22:03:24.467Z,18.88
2022-08-25T22:05:53.208Z,17.85
2022-08-25T22:08:22.483Z,14.70
2022-08-25T22:11:00.308Z,16.02
2022-08-25T22:13:30.332Z,13.52
2022-08-25T22:15:59.299Z,17.30
2022-08-25T22:18:31.537Z,18.35
2022-08-25T22:21:00.807Z,18.77
2022-08-25T22:23:44.247Z,11.75
2022-08-25T22:26:28.262Z,15.77
2022-08-25T22:28:59.507Z,17.75
2022-08-25T22:31:28.948Z,16.17
2022-08-25T22:34:00.021Z,18.75
2022-08-25T22:36:34.891Z,14.27
2022-08-25T22:39:05.565Z,16.80
2022-08-25T22:41:35.860Z,16.77
2022-08-25T22:44:10.632Z,14.15
2022-08-25T22:46:40.038Z,13.73
2022-08-25T22:49:10.576Z,12.25
2022-08-25T22:51:40.084Z,15.52
2022-08-25T22:54:09.612Z,16.27
2022-08-25T22:56:38.904Z,16.38
2022-08-25T22:59:10.711Z,16.50
2022-08-25T23:01:40.216Z,15.27
2022-08-25T23:04:10.779Z,21.83
2022-08-25T23:06:39.845Z,16.10
2022-08-25T23:09:10.737Z,14.98
2022-08-25T23:11:40.086Z,20.40
2022-08-25T23:14:11.057Z,14.70
2022-08-25T23:16:41.742Z,15.23
2022-08-25T23:19:13.996Z,18.42
2022-08-25T23:22:01.550Z,15.55
2022-08-25T23:24:31.086Z,16.73
2022-08-25T23:27:01.967Z,16.92
2022-08-25T23:29:31.553Z,15.27
2022-08-25T23:32:00.291Z,12.77
2022-08-25T23:34:30.142Z,13.32
2022-08-25T23:36:59.661Z,16.80
2022-08-25T23:39:33.863Z,19.52
2022-08-25T23:42:03.156Z,16.63
2022-08-25T23:44:32.546Z,16.45
2022-08-25T23:47:01.801Z,14.40
2022-08-25T23:49:32.636Z,19.73
2022-08-25T23:52:02.955Z,14.85
2022-08-25T23:54:52.722Z,16.55
2022-08-25T23:57:21.145Z,11.02
2022-08-25T23:59:52.057Z,13.70
